createdAt,value
2023-05-12T00:00:32.995Z,12.68
2023-05-12T00:02:06.176Z,10.73
2023-05-12T00:03:38.357Z,13.52
2023-05-12T00:05:11.633Z,13.73
2023-05-12T00:06:44.563Z,11.85
2023-05-12T00:08:17.580Z,12.00
2023-05-12T00:09:49.552Z,10.93
2023-05-12T00:11:22.572Z,11.75
2023-05-12T00:12:56.116Z,12.02
2023-05-12T00:14:29.331Z,12.38
2023-05-12T00:16:03.693Z,14.48
2023-05-12T00:17:36.919Z,11.32
2023-05-12T00:19:10.073Z,12.50
2023-05-12T00:20:42.261Z,11.68
2023-05-12T00:22:16.974Z,11.02
2023-05-12T00:23:50.032Z,12.40
2023-05-12T00:25:23.046Z,13.45
2023-05-12T00:26:56.092Z,11.27
2023-05-12T00:28:30.490Z,13.10
2023-05-12T00:30:03.545Z,13.90
2023-05-12T00:31:36.628Z,11.52
2023-05-12T00:33:09.790Z,14.68
2023-05-12T00:34:43.332Z,13.93
2023-05-12T00:36:16.344Z,12.05
2023-05-12T00:37:49.341Z,11.73
2023-05-12T00:39:22.717Z,11.55
2023-05-12T00:42:27.655Z,12.05
2023-05-12T00:44:02.126Z,12.38
2023-05-12T00:45:35.303Z,12.18
2023-05-12T00:47:07.486Z,11.00
2023-05-12T00:48:40.551Z,10.88
2023-05-12T00:50:13.655Z,12.82
2023-05-12T00:51:47.587Z,13.23
2023-05-12T00:53:20.707Z,11.85
2023-05-12T00:54:52.839Z,12.38
2023-05-12T00:56:26.848Z,11.38
2023-05-12T00:58:00.834Z,11.65
2023-05-12T00:59:34.382Z,12.65
2023-05-12T01:01:07.391Z,11.48
2023-05-12T01:02:41.120Z,12.30
2023-05-12T01:04:14.091Z,12.02
2023-05-12T01:05:51.271Z,13.05
2023-05-12T01:07:25.762Z,11.75
2023-05-12T01:08:59.113Z,12.07
2023-05-12T01:12:04.483Z,11.48
2023-05-12T01:13:39.472Z,13.45
2023-05-12T01:15:13.533Z,11.05
2023-05-12T01:16:52.496Z,12.25
2023-05-12T01:18:28.345Z,13.05
2023-05-12T01:20:04.557Z,11.90
2023-05-12T01:21:37.059Z,11.48
2023-05-12T01:23:11.048Z,12.95
2023-05-12T01:24:50.998Z,12.50
2023-05-12T01:26:25.883Z,9.45
2023-05-12T01:27:58.386Z,12.18
2023-05-12T01:29:32.925Z,14.32
2023-05-12T01:31:07.741Z,11.63
2023-05-12T01:32:39.990Z,13.82
2023-05-12T01:34:18.459Z,11.50
2023-05-12T01:35:51.495Z,13.23
2023-05-12T01:37:26.588Z,10.40
2023-05-12T01:38:59.615Z,12.00
2023-05-12T01:40:32.700Z,11.25
2023-05-12T01:42:06.808Z,11.93
2023-05-12T01:43:39.926Z,12.50
2023-05-12T01:45:12.151Z,11.68
2023-05-12T01:46:45.223Z,11.50
2023-05-12T01:48:18.302Z,11.15
2023-05-12T01:49:51.080Z,11.98
2023-05-12T01:51:24.156Z,10.23
2023-05-12T01:52:57.222Z,13.25
2023-05-12T01:54:30.303Z,11.63
2023-05-12T01:56:03.373Z,11.45
2023-05-12T01:57:37.799Z,13.00
2023-05-12T01:59:10.914Z,11.25
2023-05-12T02:00:44.046Z,11.60
2023-05-12T02:02:16.324Z,12.45
2023-05-12T02:03:49.622Z,12.85
2023-05-12T02:06:55.331Z,11.93
2023-05-12T02:08:27.362Z,11.77
2023-05-12T02:10:00.314Z,12.55
2023-05-12T02:11:33.245Z,11.27
2023-05-12T02:13:07.081Z,13.18
2023-05-12T02:17:59.890Z,16.38
2023-05-12T02:19:31.948Z,10.90
2023-05-12T02:21:05.071Z,13.10
2023-05-12T02:22:38.113Z,10.55
2023-05-12T02:24:12.911Z,11.75
2023-05-12T02:25:47.586Z,12.88
2023-05-12T02:27:20.614Z,12.05
2023-05-12T02:28:54.983Z,12.18
2023-05-12T02:30:27.953Z,10.93
2023-05-12T02:32:01.041Z,11.68
2023-05-12T02:33:34.316Z,12.93
2023-05-12T02:36:40.019Z,14.15
2023-05-12T02:39:46.332Z,13.52
2023-05-12T02:41:19.316Z,12.20
2023-05-12T02:42:52.564Z,12.73
2023-05-12T02:44:26.134Z,13.30
2023-05-12T02:45:59.304Z,11.50
2023-05-12T02:47:33.126Z,14.25
2023-05-12T02:49:06.221Z,11.57
2023-05-12T02:50:39.346Z,11.60
2023-05-12T02:52:12.523Z,11.63
2023-05-12T02:53:45.531Z,15.98
2023-05-12T02:55:18.872Z,13.20
2023-05-12T02:56:51.843Z,12.60
2023-05-12T02:58:24.886Z,12.80
2023-05-12T02:59:58.244Z,13.65
2023-05-12T03:03:04.222Z,11.40
2023-05-12T03:04:36.931Z,13.00
2023-05-12T03:06:10.469Z,13.57
2023-05-12T03:07:43.469Z,13.35
2023-05-12T03:09:16.845Z,13.07
2023-05-12T03:12:21.693Z,14.52
2023-05-12T03:13:54.682Z,11.73
2023-05-12T03:15:29.090Z,13.82
2023-05-12T03:17:02.190Z,14.23
2023-05-12T03:18:35.256Z,14.70
2023-05-12T03:20:08.039Z,12.10
2023-05-12T03:21:41.189Z,14.50
2023-05-12T03:23:14.210Z,14.52
2023-05-12T03:24:47.509Z,15.57
2023-05-12T03:27:53.332Z,13.68
2023-05-12T03:29:26.575Z,15.07
2023-05-12T03:32:32.872Z,17.65
2023-05-12T03:34:05.992Z,14.45
2023-05-12T03:35:37.996Z,15.65
2023-05-12T03:37:11.016Z,15.55
2023-05-12T03:38:44.193Z,14.48
2023-05-12T03:40:18.878Z,15.38
2023-05-12T03:41:51.177Z,13.88
2023-05-12T03:43:25.290Z,15.38
2023-05-12T03:44:58.216Z,15.38
2023-05-12T03:46:32.872Z,16.63
2023-05-12T03:48:07.090Z,16.92
2023-05-12T03:49:39.359Z,14.10
2023-05-12T03:51:12.558Z,15.02
2023-05-12T03:52:45.535Z,13.77
2023-05-12T03:54:18.721Z,15.20
2023-05-12T03:55:52.250Z,15.88
2023-05-12T03:57:24.173Z,15.90
2023-05-12T03:58:58.560Z,13.93
2023-05-12T04:00:31.514Z,15.57
2023-05-12T04:02:07.801Z,14.65
2023-05-12T04:03:41.692Z,15.30
2023-05-12T04:05:15.314Z,14.43
2023-05-12T04:06:48.248Z,14.40
2023-05-12T04:08:20.182Z,13.43
2023-05-12T04:09:53.274Z,13.10
2023-05-12T04:11:25.417Z,13.60
2023-05-12T04:12:58.385Z,12.45
2023-05-12T04:16:15.826Z,12.40
2023-05-12T04:17:49.857Z,15.93
2023-05-12T04:19:22.958Z,13.40
2023-05-12T04:20:56.491Z,13.60
2023-05-12T04:22:30.448Z,13.57
2023-05-12T04:24:03.443Z,11.93
2023-05-12T04:25:40.786Z,14.85
2023-05-12T04:27:13.782Z,13.25
2023-05-12T04:28:47.739Z,14.50
2023-05-12T04:30:20.869Z,13.68
2023-05-12T04:33:28.883Z,12.90
2023-05-12T04:35:02.088Z,11.15
2023-05-12T04:38:07.895Z,13.30
2023-05-12T04:39:40.842Z,14.07
2023-05-12T04:41:13.975Z,12.68
2023-05-12T04:42:46.910Z,11.35
2023-05-12T04:44:19.942Z,13.57
2023-05-12T04:45:54.253Z,13.88
2023-05-12T04:47:27.293Z,11.60
2023-05-12T04:49:00.647Z,10.68
2023-05-12T04:52:07.206Z,12.68
2023-05-12T04:53:40.712Z,12.20
2023-05-12T04:55:13.805Z,11.07
2023-05-12T04:56:46.812Z,12.40
2023-05-12T04:58:19.791Z,11.75
2023-05-12T04:59:53.262Z,14.43
2023-05-12T05:01:26.395Z,12.82
2023-05-12T05:02:59.409Z,12.00
2023-05-12T05:04:32.747Z,11.25
2023-05-12T05:07:38.548Z,11.95
2023-05-12T05:09:10.735Z,11.60
2023-05-12T05:10:43.837Z,17.45
2023-05-12T05:12:15.901Z,10.77
2023-05-12T05:13:48.870Z,12.25
2023-05-12T05:15:21.974Z,13.73
2023-05-12T05:16:55.039Z,11.10
2023-05-12T05:18:29.219Z,12.15
2023-05-12T05:21:36.156Z,10.68
2023-05-12T05:23:09.125Z,10.57
2023-05-12T05:24:42.092Z,13.63
2023-05-12T05:26:15.118Z,12.20
2023-05-12T05:27:48.064Z,12.85
2023-05-12T05:29:20.979Z,11.75
2023-05-12T05:30:54.035Z,12.23
2023-05-12T05:32:27.130Z,12.93
2023-05-12T05:34:00.217Z,10.05
2023-05-12T05:35:34.828Z,12.60
2023-05-12T05:37:07.829Z,10.38
2023-05-12T05:38:40.979Z,10.93
2023-05-12T05:40:14.215Z,9.60
2023-05-12T05:43:20.140Z,12.05
2023-05-12T05:44:52.123Z,11.55
2023-05-12T05:46:25.156Z,10.27
2023-05-12T05:47:58.174Z,10.68
2023-05-12T05:49:31.274Z,11.32
2023-05-12T05:51:06.320Z,13.80
2023-05-12T05:52:39.430Z,10.52
2023-05-12T05:54:12.214Z,10.82
2023-05-12T05:55:45.283Z,10.98
2023-05-12T05:57:18.208Z,12.65
2023-05-12T05:58:51.395Z,12.27
2023-05-12T06:00:24.423Z,11.40
2023-05-12T06:01:58.081Z,11.00
2023-05-12T06:03:31.619Z,11.38
2023-05-12T06:05:05.016Z,10.82
2023-05-12T06:08:13.435Z,11.95
2023-05-12T06:09:46.586Z,12.88
2023-05-12T06:11:19.584Z,11.98
2023-05-12T06:12:52.572Z,11.25
2023-05-12T06:14:25.523Z,12.55
2023-05-12T06:15:58.437Z,10.88
2023-05-12T06:17:32.695Z,10.68
2023-05-12T06:19:05.968Z,13.30
2023-05-12T06:20:38.945Z,11.68
2023-05-12T06:22:13.318Z,11.05
2023-05-12T06:23:46.250Z,11.68
2023-05-12T06:25:19.461Z,11.63
2023-05-12T06:28:25.227Z,13.13
2023-05-12T06:29:58.257Z,11.20
2023-05-12T06:31:31.347Z,12.52
2023-05-12T06:33:04.347Z,12.73
2023-05-12T06:34:37.376Z,10.13
2023-05-12T06:36:12.350Z,10.52
2023-05-12T06:37:49.732Z,11.85
2023-05-12T06:39:22.840Z,10.35
2023-05-12T06:40:55.806Z,12.38
2023-05-12T06:42:28.772Z,10.75
2023-05-12T06:44:02.501Z,10.20
2023-05-12T06:45:35.613Z,10.77
2023-05-12T06:47:08.695Z,12.48
2023-05-12T06:48:41.964Z,11.55
2023-05-12T06:51:46.802Z,10.65
2023-05-12T06:53:23.383Z,11.07
2023-05-12T06:54:57.813Z,10.13
2023-05-12T06:56:31.677Z,10.02
2023-05-12T06:58:04.901Z,10.60
2023-05-12T06:59:37.854Z,9.18
2023-05-12T07:01:10.943Z,12.20
2023-05-12T07:02:43.969Z,11.40
2023-05-12T07:04:16.960Z,12.25
2023-05-12T07:05:50.160Z,8.70
2023-05-12T07:07:23.098Z,8.88
2023-05-12T07:08:57.765Z,9.73
2023-05-12T07:10:31.953Z,10.85
2023-05-12T07:12:05.445Z,12.20
2023-05-12T07:13:39.077Z,15.90
2023-05-12T07:15:12.760Z,9.57
2023-05-12T07:16:46.756Z,10.07
2023-05-12T07:18:20.352Z,11.52
2023-05-12T07:19:53.298Z,9.40
2023-05-12T07:21:26.229Z,10.48
2023-05-12T07:22:59.258Z,11.13
2023-05-12T07:24:33.694Z,11.30
2023-05-12T07:26:08.043Z,10.77
2023-05-12T07:27:41.239Z,9.35
2023-05-12T07:29:14.372Z,8.90
2023-05-12T07:30:47.337Z,10.07
2023-05-12T07:32:20.409Z,10.27
2023-05-12T07:33:53.512Z,9.23
2023-05-12T07:35:25.611Z,11.52
2023-05-12T07:36:59.533Z,8.80
2023-05-12T07:38:32.777Z,9.18
2023-05-12T07:41:40.582Z,10.32
2023-05-12T07:43:13.623Z,8.52
2023-05-12T07:44:46.587Z,10.82
2023-05-12T07:46:19.686Z,8.50
2023-05-12T07:47:53.227Z,7.72
2023-05-12T07:49:26.748Z,9.85
2023-05-12T07:50:59.737Z,10.48
2023-05-12T07:52:32.771Z,8.82
2023-05-12T07:54:06.809Z,11.80
2023-05-12T07:55:41.139Z,12.65
2023-05-12T07:57:14.228Z,9.57
2023-05-12T07:58:47.594Z,7.88
2023-05-12T08:00:21.114Z,8.65
2023-05-12T08:01:54.344Z,8.77
2023-05-12T08:05:00.569Z,10.73
2023-05-12T08:06:33.642Z,9.07
2023-05-12T08:08:06.738Z,10.57
2023-05-12T08:09:39.700Z,8.80
2023-05-12T08:11:14.587Z,8.77
2023-05-12T08:12:48.096Z,8.15
2023-05-12T08:14:22.388Z,8.77
2023-05-12T08:15:55.458Z,8.70
2023-05-12T08:17:29.432Z,9.38
2023-05-12T08:19:02.506Z,8.40
2023-05-12T08:20:36.005Z,7.82
2023-05-12T08:22:08.905Z,9.20
2023-05-12T08:23:41.893Z,9.52
2023-05-12T08:25:14.894Z,9.48
2023-05-12T08:26:49.246Z,8.55
2023-05-12T08:28:22.129Z,9.20
2023-05-12T08:29:55.170Z,7.88
2023-05-12T08:31:28.380Z,9.82
2023-05-12T08:34:34.692Z,8.18
2023-05-12T08:36:07.871Z,8.65
2023-05-12T08:37:40.795Z,7.38
2023-05-12T08:39:13.848Z,8.15
2023-05-12T08:40:56.238Z,7.53
2023-05-12T08:42:45.139Z,8.65
2023-05-12T08:44:20.324Z,7.50
2023-05-12T08:45:57.340Z,7.80
2023-05-12T08:47:31.305Z,7.63
2023-05-12T08:49:05.765Z,9.10
2023-05-12T08:50:42.178Z,9.30
2023-05-12T08:52:21.506Z,7.13
2023-05-12T08:53:56.545Z,8.15
2023-05-12T08:55:32.724Z,8.25
2023-05-12T08:57:10.469Z,9.45
2023-05-12T08:58:47.184Z,10.63
2023-05-12T09:00:21.920Z,10.00
2023-05-12T09:01:56.337Z,8.40
2023-05-12T09:03:30.081Z,8.35
2023-05-12T09:05:03.025Z,9.90
2023-05-12T09:06:36.295Z,7.95
2023-05-12T09:09:46.230Z,7.43
2023-05-12T09:11:21.836Z,10.23
2023-05-12T09:12:59.271Z,10.25
2023-05-12T09:14:35.548Z,8.55
2023-05-12T09:16:12.324Z,8.63
2023-05-12T09:17:45.376Z,10.48
2023-05-12T09:19:21.527Z,8.65
2023-05-12T09:20:54.502Z,11.63
2023-05-12T09:22:31.343Z,11.88
2023-05-12T09:24:06.967Z,7.50
2023-05-12T09:25:39.872Z,12.43
2023-05-12T09:27:12.783Z,6.85
2023-05-12T09:28:45.958Z,11.30
2023-05-12T09:32:04.106Z,8.50
2023-05-12T09:33:37.155Z,8.15
2023-05-12T09:35:11.966Z,10.30
2023-05-12T09:36:45.868Z,9.88
2023-05-12T09:38:18.737Z,8.07
2023-05-12T09:40:00.898Z,8.10
2023-05-12T09:41:36.807Z,10.88
2023-05-12T09:43:10.008Z,8.82
2023-05-12T09:46:16.428Z,9.73
2023-05-12T09:47:49.367Z,7.90
2023-05-12T09:49:24.935Z,7.68
2023-05-12T09:50:58.745Z,10.68
2023-05-12T09:52:32.989Z,11.00
2023-05-12T09:54:07.832Z,7.68
2023-05-12T09:55:43.632Z,7.53
2023-05-12T09:57:17.698Z,8.52
2023-05-12T09:58:51.146Z,8.43
2023-05-12T10:00:38.673Z,6.90
2023-05-12T10:02:20.001Z,9.13
2023-05-12T10:03:54.682Z,7.43
2023-05-12T10:05:29.330Z,7.20
2023-05-12T10:07:02.444Z,6.50
2023-05-12T10:08:38.798Z,8.18
2023-05-12T10:10:14.198Z,8.70
2023-05-12T10:11:48.673Z,6.10
2023-05-12T10:13:23.603Z,6.85
2023-05-12T10:14:57.598Z,12.93
2023-05-12T10:16:32.842Z,7.28
2023-05-12T10:18:07.435Z,7.22
2023-05-12T10:19:42.337Z,7.40
2023-05-12T10:21:16.945Z,7.65
2023-05-12T10:22:50.851Z,8.88
2023-05-12T10:24:27.434Z,6.97
2023-05-12T10:26:02.233Z,7.05
2023-05-12T10:27:37.780Z,7.35
2023-05-12T10:29:11.831Z,8.65
2023-05-12T10:30:46.225Z,11.70
2023-05-12T10:32:19.518Z,7.53
2023-05-12T10:35:34.108Z,8.02
2023-05-12T10:37:09.018Z,6.03
2023-05-12T10:38:42.467Z,7.80
2023-05-12T10:42:04.841Z,7.05
2023-05-12T10:43:45.971Z,10.32
2023-05-12T10:45:20.762Z,8.48
2023-05-12T10:46:59.015Z,11.18
2023-05-12T10:48:31.878Z,8.40
2023-05-12T10:50:07.836Z,9.93
2023-05-12T10:51:49.657Z,13.85
2023-05-12T10:53:41.407Z,10.43
2023-05-12T10:55:15.151Z,8.15
2023-05-12T10:56:49.201Z,6.70
2023-05-12T10:58:22.628Z,7.07
2023-05-12T10:59:58.842Z,8.98
2023-05-12T11:01:32.566Z,7.00
2023-05-12T11:03:14.784Z,5.85
2023-05-12T11:04:53.108Z,7.63
2023-05-12T11:06:30.455Z,6.53
2023-05-12T11:08:04.777Z,5.20
2023-05-12T11:09:47.118Z,5.93
2023-05-12T11:11:27.818Z,5.45
2023-05-12T11:13:01.253Z,6.43
2023-05-12T11:14:34.730Z,7.45
2023-05-12T11:16:07.978Z,7.40
2023-05-12T11:17:41.551Z,8.07
2023-05-12T11:19:14.585Z,8.23
2023-05-12T11:20:47.586Z,5.95
2023-05-12T11:22:23.222Z,7.22
2023-05-12T11:23:56.424Z,6.85
2023-05-12T11:27:02.371Z,6.63
2023-05-12T11:28:41.206Z,8.48
2023-05-12T11:30:14.659Z,8.68
2023-05-12T11:31:51.461Z,7.03
2023-05-12T11:33:24.857Z,7.43
2023-05-12T11:34:58.445Z,8.55
2023-05-12T11:36:37.839Z,8.57
2023-05-12T11:38:18.244Z,7.60
2023-05-12T11:39:52.856Z,6.45
2023-05-12T11:41:26.419Z,8.57
2023-05-12T11:43:10.328Z,7.22
2023-05-12T11:44:48.486Z,8.48
2023-05-12T11:46:28.107Z,9.50
2023-05-12T11:48:08.672Z,7.93
2023-05-12T11:49:48.091Z,8.25
2023-05-12T11:51:21.084Z,11.88
2023-05-12T11:52:54.606Z,11.57
2023-05-12T11:54:30.691Z,9.45
2023-05-12T11:56:03.653Z,7.03
2023-05-12T11:57:37.138Z,9.13
2023-05-12T11:59:10.306Z,9.45
2023-05-12T12:00:43.264Z,8.55
2023-05-12T12:02:21.546Z,9.57
2023-05-12T12:03:57.211Z,11.20
2023-05-12T12:05:30.579Z,8.50
2023-05-12T12:08:40.470Z,8.80
2023-05-12T12:10:16.253Z,10.57
2023-05-12T12:11:49.201Z,9.70
2023-05-12T12:13:23.754Z,8.70
2023-05-12T12:14:59.951Z,9.63
2023-05-12T12:16:33.423Z,9.32
2023-05-12T12:18:06.858Z,9.32
2023-05-12T12:21:12.967Z,10.93
2023-05-12T12:22:45.966Z,8.82
2023-05-12T12:24:18.809Z,8.18
2023-05-12T12:25:53.048Z,9.10
2023-05-12T12:27:25.981Z,6.70
2023-05-12T12:28:58.874Z,6.55
2023-05-12T12:30:31.875Z,7.13
2023-05-12T12:32:05.041Z,8.05
2023-05-12T12:33:38.119Z,7.07
2023-05-12T12:35:11.583Z,6.93
2023-05-12T12:36:44.544Z,7.85
2023-05-12T12:38:17.703Z,9.18
2023-05-12T12:41:25.654Z,7.90
2023-05-12T12:42:58.540Z,8.77
2023-05-12T12:44:34.505Z,9.65
2023-05-12T12:46:07.459Z,11.32
2023-05-12T12:47:40.631Z,8.90
2023-05-12T12:50:46.470Z,6.60
2023-05-12T12:52:19.443Z,10.50
2023-05-12T12:53:52.432Z,9.82
2023-05-12T12:55:25.874Z,9.05
2023-05-12T12:57:00.248Z,9.55
2023-05-12T12:58:33.194Z,7.65
2023-05-12T13:00:08.540Z,7.72
2023-05-12T13:01:41.643Z,7.32
2023-05-12T13:03:14.625Z,9.45
2023-05-12T13:04:47.580Z,8.52
2023-05-12T13:06:20.505Z,8.48
2023-05-12T13:07:53.546Z,10.55
2023-05-12T13:09:26.382Z,8.13
2023-05-12T13:11:00.285Z,7.03
2023-05-12T13:12:34.650Z,8.88
2023-05-12T13:14:08.329Z,7.63
2023-05-12T13:15:41.895Z,7.57
2023-05-12T13:17:14.827Z,6.95
2023-05-12T13:18:47.765Z,9.27
2023-05-12T13:20:20.919Z,7.18
2023-05-12T13:21:54.032Z,16.42
2023-05-12T13:23:26.961Z,7.45
2023-05-12T13:24:59.908Z,11.55
2023-05-12T13:26:32.904Z,7.95
2023-05-12T13:28:08.262Z,7.18
2023-05-12T13:29:42.105Z,8.98
2023-05-12T13:31:15.019Z,7.72
2023-05-12T13:32:48.194Z,11.80
2023-05-12T13:35:52.943Z,9.05
2023-05-12T13:37:25.855Z,9.82
2023-05-12T13:38:58.766Z,7.72
2023-05-12T13:40:31.705Z,10.20
2023-05-12T13:42:04.894Z,9.02
2023-05-12T13:45:12.570Z,8.48
2023-05-12T13:46:45.644Z,7.38
2023-05-12T13:48:18.654Z,8.68
2023-05-12T13:49:52.217Z,7.75
2023-05-12T13:51:25.801Z,9.88
2023-05-12T13:52:58.701Z,6.65
2023-05-12T13:54:32.953Z,6.63
2023-05-12T13:56:06.366Z,8.63
2023-05-12T13:57:39.242Z,8.32
2023-05-12T13:59:14.425Z,7.40
2023-05-12T14:00:48.576Z,9.23
2023-05-12T14:02:22.009Z,8.63
2023-05-12T14:03:55.076Z,6.38
2023-05-12T14:05:28.338Z,9.57
2023-05-12T14:07:01.362Z,14.55
2023-05-12T14:08:34.272Z,7.28
2023-05-12T14:10:08.224Z,7.13
2023-05-12T14:11:41.152Z,10.18
2023-05-12T14:13:14.055Z,6.40
2023-05-12T14:14:50.113Z,7.93
2023-05-12T14:16:23.106Z,8.32
2023-05-12T14:17:56.133Z,9.90
2023-05-12T14:19:29.103Z,7.20
2023-05-12T14:21:02.405Z,6.75
2023-05-12T14:24:11.362Z,8.00
2023-05-12T14:25:59.867Z,6.93
2023-05-12T14:27:32.845Z,6.10
2023-05-12T14:29:07.497Z,7.78
2023-05-12T14:30:43.614Z,8.45
2023-05-12T14:32:18.154Z,10.07
2023-05-12T14:33:52.196Z,8.77
2023-05-12T14:35:27.556Z,8.13
2023-05-12T14:37:01.694Z,7.65
2023-05-12T14:38:34.659Z,9.00
2023-05-12T14:40:08.775Z,7.80
2023-05-12T14:41:41.700Z,10.48
2023-05-12T14:43:14.724Z,9.82
2023-05-12T14:44:47.621Z,9.20
2023-05-12T14:46:22.001Z,7.50
2023-05-12T14:47:55.156Z,7.50
2023-05-12T14:51:02.732Z,7.85
2023-05-12T14:52:38.392Z,8.50
2023-05-12T14:54:22.112Z,6.90
2023-05-12T14:55:58.560Z,7.07
2023-05-12T14:57:33.854Z,7.93
2023-05-12T14:59:06.915Z,8.85
2023-05-12T15:00:39.843Z,6.97
2023-05-12T15:02:14.249Z,7.22
2023-05-12T15:03:47.563Z,8.48
2023-05-12T15:06:53.590Z,6.90
2023-05-12T15:08:26.879Z,7.65
2023-05-12T15:11:32.839Z,6.20
2023-05-12T15:13:06.231Z,5.68
2023-05-12T15:14:39.240Z,8.70
2023-05-12T15:16:12.364Z,8.10
2023-05-12T15:17:46.750Z,8.43
2023-05-12T15:19:21.367Z,7.30
2023-05-12T15:20:54.484Z,6.28
2023-05-12T15:22:31.434Z,7.07
2023-05-12T15:24:04.830Z,7.18
2023-05-12T15:25:40.172Z,5.63
2023-05-12T15:27:13.175Z,6.60
2023-05-12T15:28:46.110Z,8.98
2023-05-12T15:30:19.076Z,7.15
2023-05-12T15:31:52.284Z,6.68
2023-05-12T15:34:59.807Z,5.65
2023-05-12T15:36:32.773Z,7.22
2023-05-12T15:38:05.669Z,6.80
2023-05-12T15:39:38.592Z,6.75
2023-05-12T15:41:11.557Z,5.70
2023-05-12T15:42:44.580Z,7.53
2023-05-12T15:44:17.806Z,7.03
2023-05-12T15:47:23.429Z,8.95
2023-05-12T15:48:58.204Z,8.27
2023-05-12T15:50:31.046Z,7.80
2023-05-12T15:52:04.040Z,6.70
2023-05-12T15:53:36.921Z,7.30
2023-05-12T15:55:09.899Z,6.50
2023-05-12T15:56:43.332Z,5.22
2023-05-12T15:58:16.257Z,9.43
2023-05-12T15:59:50.173Z,7.90
2023-05-12T16:01:24.317Z,7.80
2023-05-12T16:02:57.932Z,8.70
2023-05-12T16:04:32.333Z,6.38
2023-05-12T16:06:07.013Z,5.90
2023-05-12T16:07:40.587Z,7.85
2023-05-12T16:09:13.654Z,7.65
2023-05-12T16:10:46.703Z,8.20
2023-05-12T16:12:19.620Z,6.45
2023-05-12T16:13:53.220Z,6.72
2023-05-12T16:15:26.188Z,8.13
2023-05-12T16:16:59.129Z,8.18
2023-05-12T16:18:32.414Z,5.00
2023-05-12T16:20:09.296Z,7.05
2023-05-12T16:21:44.149Z,6.65
2023-05-12T16:23:17.166Z,6.07
2023-05-12T16:24:50.147Z,6.80
2023-05-12T16:26:23.867Z,8.48
2023-05-12T16:27:56.943Z,7.45
2023-05-12T16:29:30.127Z,13.07
2023-05-12T16:32:36.595Z,6.75
2023-05-12T16:34:09.656Z,5.97
2023-05-12T16:35:44.091Z,8.30
2023-05-12T16:37:17.014Z,6.25
2023-05-12T16:38:50.034Z,7.03
2023-05-12T16:40:23.013Z,6.38
2023-05-12T16:41:55.949Z,6.43
2023-05-12T16:43:28.992Z,8.05
2023-05-12T16:45:02.172Z,7.80
2023-05-12T16:46:35.976Z,6.70
2023-05-12T16:48:09.170Z,6.43
2023-05-12T16:49:42.234Z,6.32
2023-05-12T16:51:16.664Z,7.15
2023-05-12T16:52:49.555Z,7.70
2023-05-12T16:54:22.807Z,7.00
2023-05-12T16:57:28.752Z,6.40
2023-05-12T16:59:02.178Z,5.72
2023-05-12T17:00:35.475Z,7.35
2023-05-12T17:03:41.682Z,8.63
2023-05-12T17:06:50.111Z,6.57
2023-05-12T17:08:23.127Z,9.98
2023-05-12T17:09:56.112Z,15.65
2023-05-12T17:11:29.105Z,9.20
2023-05-12T17:13:02.493Z,6.75
2023-05-12T17:14:35.703Z,8.23
2023-05-12T17:17:41.700Z,7.97
2023-05-12T17:19:15.082Z,10.50
2023-05-12T17:20:48.141Z,7.65
2023-05-12T17:22:22.494Z,9.15
2023-05-12T17:23:55.546Z,9.02
2023-05-12T17:25:31.040Z,8.55
2023-05-12T17:27:05.791Z,7.43
2023-05-12T17:28:38.856Z,6.88
2023-05-12T17:30:12.978Z,6.50
2023-05-12T17:31:46.015Z,4.68
2023-05-12T17:33:19.117Z,5.80
2023-05-12T17:34:52.173Z,6.22
2023-05-12T17:36:25.105Z,5.70
2023-05-12T17:38:00.610Z,6.53
2023-05-12T17:39:34.246Z,5.85
2023-05-12T17:41:07.258Z,8.82
2023-05-12T17:42:40.229Z,8.02
2023-05-12T17:44:13.174Z,7.20
2023-05-12T17:45:46.142Z,7.95
2023-05-12T17:47:19.227Z,7.60
2023-05-12T17:48:52.297Z,5.82
2023-05-12T17:50:25.238Z,7.20
2023-05-12T17:51:58.317Z,7.57
2023-05-12T17:53:33.588Z,8.15
2023-05-12T17:55:09.154Z,7.88
2023-05-12T17:56:42.090Z,6.53
2023-05-12T17:58:15.020Z,8.68
2023-05-12T17:59:48.519Z,6.63
2023-05-12T18:01:21.417Z,7.20
2023-05-12T18:02:54.485Z,8.15
2023-05-12T18:04:27.637Z,6.63
2023-05-12T18:06:00.657Z,7.15
2023-05-12T18:07:33.739Z,6.32
2023-05-12T18:09:08.610Z,6.53
2023-05-12T18:10:41.596Z,6.97
2023-05-12T18:12:14.628Z,6.10
2023-05-12T18:13:48.022Z,8.18
2023-05-12T18:15:22.446Z,5.63
2023-05-12T18:16:55.492Z,4.75
2023-05-12T18:18:28.568Z,7.75
2023-05-12T18:20:01.796Z,6.75
2023-05-12T18:21:34.779Z,7.43
2023-05-12T18:23:07.776Z,7.68
2023-05-12T18:24:42.083Z,8.85
2023-05-12T18:26:15.036Z,6.85
2023-05-12T18:27:48.824Z,6.45
2023-05-12T18:29:21.739Z,7.68
2023-05-12T18:30:56.261Z,9.48
2023-05-12T18:32:33.631Z,6.65
2023-05-12T18:34:06.923Z,6.47
2023-05-12T18:37:15.352Z,6.07
2023-05-12T18:38:48.520Z,8.40
2023-05-12T18:40:22.857Z,7.40
2023-05-12T18:41:56.135Z,6.70
2023-05-12T18:45:02.005Z,5.57
2023-05-12T18:46:34.999Z,6.00
2023-05-12T18:48:08.283Z,5.82
2023-05-12T18:51:13.049Z,5.88
2023-05-12T18:52:45.998Z,7.53
2023-05-12T18:54:18.969Z,6.93
2023-05-12T18:55:53.350Z,7.15
2023-05-12T18:57:26.373Z,5.65
2023-05-12T18:58:59.412Z,6.25
2023-05-12T19:00:33.515Z,6.57
2023-05-12T19:02:06.610Z,7.57
2023-05-12T19:03:40.283Z,6.60
2023-05-12T19:05:13.247Z,10.77
2023-05-12T19:06:46.749Z,6.80
2023-05-12T19:08:20.014Z,7.43
2023-05-12T19:11:27.494Z,6.95
2023-05-12T19:13:00.447Z,6.40
2023-05-12T19:14:33.408Z,5.53
2023-05-12T19:16:06.685Z,9.18
2023-05-12T19:19:12.688Z,5.32
2023-05-12T19:22:18.502Z,5.85
2023-05-12T19:23:51.497Z,6.90
2023-05-12T19:25:23.977Z,6.35
2023-05-12T19:26:58.780Z,5.82
2023-05-12T19:28:31.730Z,7.07
2023-05-12T19:30:05.967Z,7.68
2023-05-12T19:31:38.996Z,7.63
2023-05-12T19:33:12.005Z,6.55
2023-05-12T19:34:45.064Z,7.65
2023-05-12T19:36:18.118Z,8.05
2023-05-12T19:37:51.996Z,5.13
2023-05-12T19:39:24.975Z,7.38
2023-05-12T19:40:57.846Z,7.82
2023-05-12T19:42:32.675Z,5.60
2023-05-12T19:44:05.761Z,7.45
2023-05-12T19:45:38.915Z,6.32
2023-05-12T19:47:14.062Z,7.32
2023-05-12T19:48:47.224Z,9.32
2023-05-12T19:50:21.139Z,4.57
2023-05-12T19:51:54.121Z,6.00
2023-05-12T19:53:27.119Z,5.82
2023-05-12T19:55:00.099Z,6.60
2023-05-12T19:56:33.629Z,5.72
2023-05-12T19:58:08.900Z,6.72
2023-05-12T19:59:42.279Z,4.72
2023-05-12T20:02:48.316Z,6.53
2023-05-12T20:04:21.443Z,6.57
2023-05-12T20:05:54.399Z,6.18
2023-05-12T20:07:27.483Z,6.35
2023-05-12T20:09:00.598Z,7.45
2023-05-12T20:10:33.573Z,7.18
2023-05-12T20:12:08.034Z,7.93
2023-05-12T20:13:42.481Z,7.15
2023-05-12T20:15:15.593Z,6.25
2023-05-12T20:16:48.615Z,8.00
2023-05-12T20:18:23.192Z,8.68
2023-05-12T20:19:56.985Z,6.05
2023-05-12T20:21:31.193Z,6.57
2023-05-12T20:23:04.625Z,6.97
2023-05-12T20:24:37.657Z,7.60
2023-05-12T20:26:11.012Z,6.32
2023-05-12T20:29:20.912Z,8.20
2023-05-12T20:30:53.996Z,6.93
2023-05-12T20:32:27.107Z,5.88
2023-05-12T20:34:00.030Z,5.50
2023-05-12T20:35:32.998Z,5.70
2023-05-12T20:37:06.380Z,5.07
2023-05-12T20:40:13.231Z,5.43
2023-05-12T20:41:46.439Z,7.20
2023-05-12T20:43:19.383Z,5.78
2023-05-12T20:44:53.705Z,5.88
2023-05-12T20:46:28.253Z,7.35
2023-05-12T20:48:01.512Z,7.75
2023-05-12T20:49:34.581Z,4.78
2023-05-12T20:51:13.917Z,5.53
2023-05-12T20:52:50.214Z,5.35
2023-05-12T20:54:23.142Z,11.25
2023-05-12T20:55:56.125Z,6.05
2023-05-12T20:57:28.703Z,5.13
2023-05-12T20:59:01.604Z,5.88
2023-05-12T21:00:36.159Z,6.47
2023-05-12T21:02:10.744Z,4.53
2023-05-12T21:03:43.796Z,8.80
2023-05-12T21:05:16.939Z,6.85
2023-05-12T21:06:51.489Z,5.28
2023-05-12T21:08:26.153Z,5.10
2023-05-12T21:10:00.152Z,4.78
2023-05-12T21:11:33.361Z,4.60
2023-05-12T21:13:06.560Z,7.28
2023-05-12T21:14:40.372Z,6.55
2023-05-12T21:16:14.777Z,5.53
2023-05-12T21:17:47.745Z,5.63
2023-05-12T21:19:20.844Z,5.95
2023-05-12T21:20:53.793Z,6.70
2023-05-12T21:22:26.876Z,6.68
2023-05-12T21:23:59.810Z,6.85
2023-05-12T21:25:32.719Z,7.35
2023-05-12T21:27:07.134Z,8.73
2023-05-12T21:28:40.005Z,6.70
2023-05-12T21:30:13.368Z,6.28
2023-05-12T21:33:21.438Z,7.30
2023-05-12T21:34:54.429Z,9.07
2023-05-12T21:36:27.341Z,5.97
2023-05-12T21:38:00.341Z,6.35
2023-05-12T21:39:33.195Z,5.95
2023-05-12T21:41:06.171Z,7.07
2023-05-12T21:42:39.083Z,7.47
2023-05-12T21:44:12.100Z,7.38
2023-05-12T21:45:45.223Z,8.05
2023-05-12T21:47:19.662Z,6.45
2023-05-12T21:48:53.079Z,6.25
2023-05-12T21:50:26.050Z,5.93
2023-05-12T21:51:58.989Z,7.88
2023-05-12T21:53:31.976Z,7.07
2023-05-12T21:55:05.432Z,6.85
2023-05-12T21:56:38.311Z,6.93
2023-05-12T21:58:11.196Z,6.15
2023-05-12T21:59:44.175Z,5.93
2023-05-12T22:01:17.452Z,6.80
2023-05-12T22:05:58.237Z,6.38